Time;durP1;ratioP1;P1;durP2;ratioP2;P2;SDS_P1;SDS_P2;PMS_P1;PMS_P2;Temp;Humidity;BMP_temperature;BMP_pressure;BME280_temperature;BME280_humidity;BME280_pressure;Samples;Min_cycle;Max_cycle;Signal;HPM_P1;HPM_P2
2021/12/06 00:00:23;;;;;;;40.78;24.70;;;6.90;99.90;;;;;;5036739;28;20190;-90
2021/12/06 00:02:51;;;;;;;40.08;26.15;;;6.90;99.90;;;;;;5019299;28;20550;-90
2021/12/06 00:05:17;;;;;;;40.13;24.90;;;6.90;99.90;;;;;;5018948;28;20202;-92
2021/12/06 00:07:45;;;;;;;39.00;26.23;;;6.90;99.90;;;;;;5019460;28;20273;-92
2021/12/06 00:10:12;;;;;;;39.90;25.55;;;6.90;99.90;;;;;;5018932;28;20191;-92
2021/12/06 00:12:38;;;;;;;38.53;25.25;;;6.80;99.90;;;;;;5036478;28;20182;-91
2021/12/06 00:15:05;;;;;;;34.73;23.60;;;6.80;99.90;;;;;;5019054;28;20288;-92
2021/12/06 00:17:32;;;;;;;32.63;22.58;;;6.80;99.90;;;;;;5018777;28;20581;-92
2021/12/06 00:19:58;;;;;;;51.35;32.95;;;6.90;99.90;;;;;;5018704;28;20191;-90
2021/12/06 00:22:23;;;;;;;65.70;38.13;;;6.80;99.90;;;;;;5018998;28;20326;-90
2021/12/06 00:24:54;;;;;;;55.10;35.80;;;6.80;99.90;;;;;;5019089;28;20222;-92
2021/12/06 00:27:20;;;;;;;42.40;27.48;;;6.80;99.90;;;;;;5018574;28;20431;-92
2021/12/06 00:29:47;;;;;;;49.30;29.40;;;6.80;99.90;;;;;;5018584;28;20210;-92
2021/12/06 00:32:12;;;;;;;43.10;27.95;;;6.80;99.90;;;;;;5039676;28;20253;-90
2021/12/06 00:34:39;;;;;;;43.00;27.13;;;6.80;99.90;;;;;;5036066;28;20205;-93
2021/12/06 00:37:30;;;;;;;40.95;24.20;;;6.80;99.90;;;;;;5018631;28;20228;-92
2021/12/06 00:39:59;;;;;;;35.63;21.48;;;6.90;99.90;;;;;;5019029;28;20199;-91
2021/12/06 00:42:28;;;;;;;34.30;21.08;;;6.90;99.90;;;;;;5036195;28;20182;-90
2021/12/06 00:44:54;;;;;;;36.13;22.30;;;6.90;99.90;;;;;;5018160;28;20230;-90
2021/12/06 00:47:21;;;;;;;42.92;27.48;;;6.90;99.90;;;;;;5047127;28;20171;-91
2021/12/06 00:49:47;;;;;;;34.17;21.42;;;6.90;99.90;;;;;;5019843;28;20261;-90
2021/12/06 00:52:14;;;;;;;31.98;20.73;;;6.90;99.90;;;;;;5017850;28;20194;-92
2021/12/06 00:54:40;;;;;;;31.52;21.35;;;6.80;99.90;;;;;;5035926;28;20175;-91
2021/12/06 00:57:09;;;;;;;30.75;21.42;;;6.80;99.90;;;;;;5018074;28;20228;-92
2021/12/06 00:59:35;;;;;;;33.47;22.20;;;6.80;99.90;;;;;;5035606;28;20193;-92
2021/12/06 01:02:02;;;;;;;30.63;20.98;;;6.80;99.90;;;;;;5018418;28;20548;-92
2021/12/06 01:04:31;;;;;;;34.47;21.55;;;6.80;99.90;;;;;;5018037;28;20187;-91
2021/12/06 01:06:57;;;;;;;31.95;20.08;;;6.80;99.90;;;;;;5017952;28;20192;-91
2021/12/06 01:09:23;;;;;;;32.33;20.80;;;6.80;99.90;;;;;;5017988;28;20182;-91
2021/12/06 01:11:49;;;;;;;33.73;22.13;;;6.80;99.90;;;;;;5019100;28;20236;-92
2021/12/06 01:14:14;;;;;;;35.80;23.80;;;6.80;99.90;;;;;;5035958;28;20412;-90
2021/12/06 01:16:40;;;;;;;35.27;20.80;;;6.80;99.90;;;;;;5035104;28;20244;-92
2021/12/06 01:19:06;;;;;;;35.90;21.87;;;6.70;99.90;;;;;;5018142;28;20171;-91
2021/12/06 01:22:05;;;;;;;32.73;21.70;;;6.80;99.90;;;;;;5017578;28;20244;-90
2021/12/06 01:24:24;;;;;;;34.53;21.50;;;6.80;99.90;;;;;;5043586;28;20188;-91
2021/12/06 01:27:12;;;;;;;35.08;22.17;;;6.80;99.90;;;;;;5030958;28;20217;-91
2021/12/06 01:40:46;;;;;;;31.35;20.45;;;6.80;99.90;;;;;;5035228;28;20278;-91
2021/12/06 01:43:12;;;;;;;30.77;20.63;;;6.70;99.90;;;;;;5017539;28;20212;-92
2021/12/06 01:45:37;;;;;;;33.40;21.53;;;6.70;99.90;;;;;;5034462;28;20742;-92
2021/12/06 01:48:03;;;;;;;32.90;22.27;;;6.80;99.90;;;;;;5035000;28;20225;-92
2021/12/06 01:50:29;;;;;;;30.98;21.92;;;6.80;99.90;;;;;;5017653;28;20201;-90
2021/12/06 01:52:59;;;;;;;32.00;21.80;;;6.80;99.90;;;;;;5017695;28;20186;-90
2021/12/06 01:55:33;;;;;;;33.40;23.15;;;6.80;99.90;;;;;;5018355;28;20191;-91
2021/12/06 01:58:00;;;;;;;33.97;21.98;;;6.80;99.90;;;;;;5017435;28;20663;-92
2021/12/06 02:00:43;;;;;;;39.72;24.88;;;6.80;99.90;;;;;;5017483;28;20221;-90
2021/12/06 02:03:09;;;;;;;39.60;25.52;;;6.80;99.90;;;;;;5038062;28;20261;-91
2021/12/06 02:05:37;;;;;;;39.95;24.30;;;6.80;99.90;;;;;;5034317;28;20250;-92
2021/12/06 02:08:04;;;;;;;39.55;24.58;;;6.80;99.90;;;;;;5019473;28;20182;-92
2021/12/06 02:10:30;;;;;;;33.30;22.40;;;6.80;99.90;;;;;;5017042;28;20230;-90
2021/12/06 02:12:56;;;;;;;37.67;23.40;;;6.80;99.90;;;;;;5016711;28;20670;-91
2021/12/06 02:18:06;;;;;;;36.90;24.80;;;6.80;99.90;;;;;;5034674;28;20221;-92
2021/12/06 02:20:37;;;;;;;38.55;24.52;;;6.80;99.90;;;;;;5017125;28;20245;-90
2021/12/06 02:23:04;;;;;;;32.40;22.15;;;6.80;99.90;;;;;;5016947;28;20190;-90
2021/12/06 02:25:29;;;;;;;36.45;22.40;;;6.80;99.90;;;;;;5016835;28;20638;-90
2021/12/06 02:27:55;;;;;;;35.03;21.33;;;6.80;99.90;;;;;;5019717;28;20202;-92
2021/12/06 02:30:21;;;;;;;31.50;21.90;;;6.80;99.90;;;;;;5019993;28;20193;-90
2021/12/06 02:32:50;;;;;;;33.50;21.13;;;6.80;99.90;;;;;;5018845;28;20556;-90
2021/12/06 02:35:19;;;;;;;38.15;21.73;;;6.80;99.90;;;;;;5017802;28;20245;-92
2021/12/06 02:37:46;;;;;;;34.80;21.67;;;6.80;99.90;;;;;;5016732;28;20234;-90
2021/12/06 02:40:16;;;;;;;33.58;21.52;;;6.80;99.90;;;;;;5034350;28;20201;-89
2021/12/06 02:42:44;;;;;;;34.25;21.95;;;6.80;99.90;;;;;;5019023;28;20182;-91
2021/12/06 02:45:12;;;;;;;36.60;21.90;;;6.80;99.90;;;;;;5004994;28;20231;-92
2021/12/06 02:47:39;;;;;;;36.03;20.92;;;6.80;99.90;;;;;;4997226;28;20549;-92
2021/12/06 02:50:08;;;;;;;31.30;21.10;;;6.80;99.90;;;;;;4997827;28;20207;-92
2021/12/06 02:52:34;;;;;;;36.42;22.48;;;6.80;99.90;;;;;;5014771;28;20667;-92
2021/12/06 02:55:07;;;;;;;31.83;21.90;;;6.80;99.90;;;;;;4997294;28;20738;-90
2021/12/06 02:57:37;;;;;;;33.47;21.88;;;6.80;99.90;;;;;;4997100;28;20687;-92
2021/12/06 03:00:09;;;;;;;36.75;22.42;;;6.80;99.90;;;;;;4996934;28;20191;-90
2021/12/06 03:02:35;;;;;;;36.67;23.63;;;6.70;99.90;;;;;;4997354;28;20191;-92
2021/12/06 03:05:03;;;;;;;35.40;22.45;;;6.80;99.90;;;;;;4997146;28;20209;-92
2021/12/06 03:07:29;;;;;;;37.47;21.55;;;6.80;99.90;;;;;;4997099;28;20210;-90
2021/12/06 03:09:56;;;;;;;36.60;21.60;;;6.70;99.90;;;;;;4997331;28;20672;-90
2021/12/06 03:12:26;;;;;;;36.78;22.20;;;6.70;99.90;;;;;;5015544;28;20463;-90
2021/12/06 03:14:55;;;;;;;43.22;25.08;;;6.80;99.90;;;;;;5017864;28;20660;-92
2021/12/06 03:17:24;;;;;;;38.15;24.00;;;6.80;99.90;;;;;;5015034;28;20290;-91
2021/12/06 03:19:50;;;;;;;41.38;24.38;;;6.80;99.90;;;;;;5011470;28;20230;-92
2021/12/06 03:22:17;;;;;;;42.17;25.85;;;6.80;99.90;;;;;;5001325;28;20305;-90
2021/12/06 03:24:44;;;;;;;38.88;24.23;;;6.80;99.90;;;;;;5018025;28;20687;-90
2021/12/06 03:27:11;;;;;;;38.25;23.67;;;6.80;99.90;;;;;;5000171;28;20179;-92
2021/12/06 03:29:38;;;;;;;45.65;26.33;;;6.80;99.90;;;;;;5000146;28;20640;-92
2021/12/06 03:32:04;;;;;;;39.83;24.17;;;6.80;99.90;;;;;;5000077;28;20242;-92
2021/12/06 03:34:31;;;;;;;41.58;25.08;;;6.70;99.90;;;;;;5000017;28;20186;-92
2021/12/06 03:37:00;;;;;;;45.95;25.17;;;6.80;99.90;;;;;;5000309;28;20225;-90
2021/12/06 03:39:33;;;;;;;42.10;24.30;;;6.80;99.90;;;;;;5017276;28;20191;-90
2021/12/06 03:42:03;;;;;;;40.58;22.70;;;6.80;99.90;;;;;;5017469;28;20180;-90
2021/12/06 03:44:29;;;;;;;43.17;25.38;;;6.80;99.90;;;;;;5005927;28;20721;-92
2021/12/06 03:47:14;;;;;;;43.80;23.63;;;6.80;99.90;;;;;;5019750;28;20186;-90
2021/12/06 03:49:42;;;;;;;43.55;24.15;;;6.80;99.90;;;;;;5037124;28;20392;-92
2021/12/06 03:52:08;;;;;;;40.20;24.55;;;6.80;99.90;;;;;;5019543;28;20191;-90
2021/12/06 03:54:34;;;;;;;42.50;25.30;;;6.80;99.90;;;;;;5019531;28;20221;-90
2021/12/06 03:57:02;;;;;;;48.05;25.92;;;6.80;99.90;;;;;;5036985;28;20253;-90
2021/12/06 03:59:28;;;;;;;52.22;26.08;;;6.90;99.90;;;;;;5036774;28;20178;-92
2021/12/06 04:01:54;;;;;;;48.00;26.85;;;6.80;99.90;;;;;;5019253;28;20214;-92
2021/12/06 04:04:20;;;;;;;46.13;25.20;;;6.80;99.90;;;;;;5019715;28;20224;-91
2021/12/06 04:06:47;;;;;;;49.30;26.13;;;6.90;99.90;;;;;;5018948;28;20473;-91
2021/12/06 04:09:13;;;;;;;46.95;26.30;;;6.90;99.90;;;;;;5018982;28;20652;-90
2021/12/06 04:11:40;;;;;;;48.40;28.77;;;6.90;99.90;;;;;;5019182;28;20190;-90
2021/12/06 04:14:06;;;;;;;52.03;28.55;;;6.90;99.90;;;;;;5019114;28;20640;-90
2021/12/06 04:16:33;;;;;;;49.10;27.70;;;6.90;99.90;;;;;;5018560;28;20218;-90
2021/12/06 04:18:59;;;;;;;48.25;26.10;;;6.90;99.90;;;;;;5019026;28;20657;-89
2021/12/06 04:21:26;;;;;;;51.50;27.40;;;6.90;99.90;;;;;;5018761;28;20207;-90
2021/12/06 04:23:52;;;;;;;53.85;28.95;;;6.90;99.90;;;;;;5046401;28;20217;-91
2021/12/06 04:26:19;;;;;;;53.20;27.85;;;6.90;99.90;;;;;;5035701;28;20308;-90
2021/12/06 04:28:48;;;;;;;46.67;25.95;;;7.00;99.90;;;;;;5038137;28;20297;-92
2021/12/06 04:31:16;;;;;;;53.33;26.98;;;7.00;99.90;;;;;;5020792;28;20194;-92
2021/12/06 04:33:42;;;;;;;47.35;26.95;;;7.00;99.90;;;;;;5018733;28;20186;-92
2021/12/06 04:36:08;;;;;;;50.03;27.03;;;7.00;99.90;;;;;;5036263;28;20253;-93
2021/12/06 04:38:34;;;;;;;44.92;26.55;;;7.10;99.90;;;;;;5018778;28;20408;-92
2021/12/06 04:41:00;;;;;;;45.78;25.60;;;7.10;99.90;;;;;;5018665;28;20237;-92
2021/12/06 04:43:26;;;;;;;43.83;24.63;;;7.10;99.90;;;;;;5018523;28;20179;-90
2021/12/06 04:45:51;;;;;;;41.43;24.10;;;7.10;99.90;;;;;;5018533;28;20264;-92
2021/12/06 04:48:17;;;;;;;38.37;21.87;;;7.10;99.90;;;;;;5018468;28;20266;-92
2021/12/06 04:50:43;;;;;;;39.80;22.50;;;7.10;99.90;;;;;;5018131;28;20195;-90
2021/12/06 04:53:36;;;;;;;44.63;22.63;;;7.10;99.90;;;;;;5036163;28;20174;-92
2021/12/06 04:56:14;;;;;;;32.35;18.58;;;7.10;99.90;;;;;;5018078;28;20206;-92
2021/12/06 04:59:03;;;;;;;35.80;20.08;;;7.20;99.90;;;;;;5018234;28;20190;-92
2021/12/06 05:01:32;;;;;;;31.38;18.75;;;7.20;99.90;;;;;;5008824;28;20559;-90
2021/12/06 05:04:02;;;;;;;24.73;15.07;;;7.20;99.90;;;;;;5018300;28;20194;-92
2021/12/06 05:06:31;;;;;;;21.02;13.55;;;7.20;99.90;;;;;;5018042;28;20198;-90
2021/12/06 05:09:02;;;;;;;19.08;13.68;;;7.20;99.90;;;;;;5018129;28;20182;-92
2021/12/06 05:11:30;;;;;;;16.35;12.48;;;7.20;99.90;;;;;;5035607;28;20270;-90
2021/12/06 05:14:00;;;;;;;21.38;14.70;;;7.20;99.90;;;;;;5017788;28;20193;-92
2021/12/06 05:16:26;;;;;;;19.35;12.70;;;7.20;99.90;;;;;;5017710;28;20218;-92
2021/12/06 05:18:52;;;;;;;22.97;13.63;;;7.20;99.90;;;;;;5035786;28;20186;-90
2021/12/06 05:21:18;;;;;;;16.52;13.02;;;7.10;99.90;;;;;;5033623;28;20277;-89
2021/12/06 05:23:44;;;;;;;21.40;14.27;;;7.00;99.90;;;;;;5008322;28;20216;-92
2021/12/06 05:26:10;;;;;;;20.48;15.15;;;7.00;99.90;;;;;;5027510;28;20285;-92
2021/12/06 05:28:42;;;;;;;24.33;15.25;;;6.90;99.90;;;;;;5014676;28;20175;-90
2021/12/06 05:31:16;;;;;;;21.05;15.15;;;6.80;99.90;;;;;;5009101;28;20199;-91
2021/12/06 05:33:46;;;;;;;22.00;14.98;;;6.80;99.90;;;;;;5021117;28;20225;-89
2021/12/06 05:36:13;;;;;;;25.45;15.45;;;6.70;99.90;;;;;;5013975;28;20702;-92
2021/12/06 05:38:39;;;;;;;25.50;15.50;;;6.60;99.90;;;;;;4997741;28;20215;-92
2021/12/06 05:41:06;;;;;;;22.30;15.40;;;6.60;99.90;;;;;;5025933;28;20291;-90
2021/12/06 05:43:32;;;;;;;24.05;15.73;;;6.60;99.90;;;;;;5035371;28;20389;-90
2021/12/06 05:45:58;;;;;;;22.52;14.85;;;6.50;99.90;;;;;;5052821;28;20314;-90
2021/12/06 05:48:24;;;;;;;26.23;16.35;;;6.50;99.90;;;;;;5052048;28;20233;-92
2021/12/06 05:50:50;;;;;;;20.58;15.15;;;6.40;99.90;;;;;;5015574;28;20342;-92
2021/12/06 05:53:16;;;;;;;24.40;15.13;;;6.40;99.90;;;;;;5029650;28;20208;-91
2021/12/06 05:55:43;;;;;;;25.55;14.75;;;6.30;99.90;;;;;;5013371;28;20199;-90
2021/12/06 05:58:11;;;;;;;18.95;13.98;;;6.30;99.90;;;;;;5000321;28;20182;-90
2021/12/06 06:00:38;;;;;;;23.48;15.45;;;6.30;99.90;;;;;;5013680;28;20210;-90
2021/12/06 06:03:05;;;;;;;22.67;14.32;;;6.30;99.90;;;;;;5024712;28;20663;-90
2021/12/06 06:05:33;;;;;;;20.05;12.70;;;6.20;99.90;;;;;;5030335;28;20576;-92
2021/12/06 06:07:59;;;;;;;19.98;13.00;;;6.30;99.90;;;;;;5036181;28;20190;-90
2021/12/06 06:10:25;;;;;;;18.60;12.77;;;6.40;99.90;;;;;;5022134;28;20211;-89
2021/12/06 06:12:51;;;;;;;15.83;11.70;;;6.40;99.90;;;;;;5026181;28;20275;-91
2021/12/06 06:15:17;;;;;;;16.15;12.32;;;6.40;99.90;;;;;;5005095;28;20467;-92
2021/12/06 06:17:44;;;;;;;16.38;12.07;;;6.50;99.90;;;;;;4996198;28;20219;-92
2021/12/06 06:20:22;;;;;;;16.58;11.43;;;6.50;99.90;;;;;;5047901;28;20302;-91
2021/12/06 06:22:48;;;;;;;14.57;11.43;;;6.60;99.90;;;;;;4995848;28;20191;-90
2021/12/06 06:25:15;;;;;;;17.20;12.43;;;6.50;99.90;;;;;;5011946;28;20198;-90
2021/12/06 06:27:42;;;;;;;16.15;11.95;;;6.50;99.90;;;;;;5015086;28;20623;-91
2021/12/06 06:30:09;;;;;;;18.05;12.15;;;6.40;99.90;;;;;;5014551;28;20237;-92
2021/12/06 06:32:34;;;;;;;20.15;13.00;;;6.30;99.90;;;;;;5016083;28;20250;-90
2021/12/06 06:35:00;;;;;;;23.67;14.20;;;6.20;99.90;;;;;;5017008;28;20230;-92
2021/12/06 06:37:26;;;;;;;21.10;13.07;;;6.20;99.90;;;;;;5015846;28;20252;-92
2021/12/06 06:39:52;;;;;;;27.70;14.17;;;6.10;99.90;;;;;;5010868;28;20487;-92
2021/12/06 06:42:22;;;;;;;33.90;20.92;;;6.00;99.90;;;;;;5009668;28;20447;-91
2021/12/06 06:44:50;;;;;;;42.05;23.30;;;6.00;99.90;;;;;;5014486;28;21432;-92
2021/12/06 06:47:16;;;;;;;32.35;21.05;;;6.00;99.90;;;;;;5015610;28;20190;-91
2021/12/06 06:49:41;;;;;;;31.93;19.10;;;5.90;99.90;;;;;;5005944;28;20178;-92
2021/12/06 06:52:07;;;;;;;22.57;14.83;;;5.90;99.90;;;;;;5013927;28;20191;-92
2021/12/06 06:54:33;;;;;;;25.70;14.60;;;5.90;99.90;;;;;;5035077;28;20313;-92
2021/12/06 06:56:58;;;;;;;21.30;14.73;;;5.90;99.90;;;;;;5013395;28;20234;-92
2021/12/06 06:59:24;;;;;;;24.03;15.20;;;5.90;99.90;;;;;;5011844;28;20181;-90
2021/12/06 07:01:50;;;;;;;19.40;13.70;;;5.90;99.90;;;;;;5019678;28;20210;-90
2021/12/06 07:04:15;;;;;;;18.97;14.00;;;5.90;99.90;;;;;;5019490;28;20703;-91
2021/12/06 07:06:42;;;;;;;18.27;13.67;;;5.80;99.90;;;;;;5028938;28;20451;-92
2021/12/06 07:09:08;;;;;;;17.30;12.73;;;5.80;99.90;;;;;;5043724;28;20225;-90
2021/12/06 07:11:34;;;;;;;20.03;13.47;;;5.80;99.90;;;;;;5010488;28;20194;-90
2021/12/06 07:14:00;;;;;;;18.73;14.07;;;5.70;99.90;;;;;;5017651;28;20919;-88
2021/12/06 07:16:26;;;;;;;16.37;13.60;;;5.70;99.90;;;;;;5032580;28;20438;-90
2021/12/06 07:18:52;;;;;;;27.50;15.43;;;5.70;99.90;;;;;;5020310;28;20897;-90
2021/12/06 07:21:18;;;;;;;19.60;14.95;;;5.70;99.90;;;;;;5016014;28;20271;-91
2021/12/06 07:23:45;;;;;;;18.73;15.00;;;5.70;99.90;;;;;;5035328;28;20194;-90
2021/12/06 07:26:14;;;;;;;22.75;14.63;;;5.70;99.90;;;;;;5033205;28;20469;-92
2021/12/06 07:28:40;;;;;;;24.70;14.98;;;5.70;99.90;;;;;;5018120;28;20191;-92
2021/12/06 07:31:08;;;;;;;19.90;14.65;;;5.70;99.90;;;;;;5016763;28;20202;-90
2021/12/06 07:33:35;;;;;;;18.98;13.05;;;5.70;99.90;;;;;;5041783;28;20311;-89
2021/12/06 07:36:01;;;;;;;18.38;13.65;;;5.60;99.90;;;;;;5046016;28;20863;-90
2021/12/06 07:38:27;;;;;;;19.70;13.90;;;5.60;99.90;;;;;;5035025;28;20266;-91
2021/12/06 07:40:54;;;;;;;17.17;14.68;;;5.60;99.90;;;;;;5032716;28;20406;-92
2021/12/06 07:43:20;;;;;;;22.15;15.95;;;5.60;99.90;;;;;;5053590;28;20210;-91
2021/12/06 07:45:46;;;;;;;18.80;14.77;;;5.60;99.90;;;;;;5056387;28;20234;-92
2021/12/06 07:48:12;;;;;;;21.67;16.23;;;5.60;99.90;;;;;;5018684;28;20432;-91
2021/12/06 07:50:38;;;;;;;18.70;14.60;;;5.60;99.90;;;;;;5006851;28;20218;-90
2021/12/06 07:53:05;;;;;;;20.58;15.00;;;5.60;99.90;;;;;;5011557;28;20462;-92
2021/12/06 07:55:32;;;;;;;24.27;15.10;;;5.50;99.90;;;;;;5031741;28;20683;-93
2021/12/06 07:57:59;;;;;;;22.10;14.70;;;5.50;99.90;;;;;;4998334;28;20904;-92
2021/12/06 08:00:27;;;;;;;21.13;15.30;;;5.50;99.90;;;;;;5014178;28;20202;-92
2021/12/06 08:02:53;;;;;;;20.15;14.77;;;5.50;99.90;;;;;;5000648;28;20183;-90
2021/12/06 08:05:35;;;;;;;20.00;15.40;;;5.50;99.90;;;;;;4994426;28;20236;-92
2021/12/06 08:08:12;;;;;;;19.13;14.57;;;5.50;99.90;;;;;;4993809;28;20199;-92
2021/12/06 08:10:43;;;;;;;25.40;17.02;;;5.40;99.90;;;;;;5024939;28;20369;-90
2021/12/06 08:13:10;;;;;;;25.55;17.27;;;5.40;99.90;;;;;;5009851;28;20353;-89
2021/12/06 08:15:37;;;;;;;29.52;17.70;;;5.40;99.90;;;;;;5010033;28;20199;-93
2021/12/06 08:18:05;;;;;;;23.63;16.65;;;5.40;99.90;;;;;;4996529;28;20218;-90
2021/12/06 08:20:31;;;;;;;28.88;17.35;;;5.40;99.90;;;;;;4999518;28;20615;-90
2021/12/06 08:22:57;;;;;;;29.25;19.00;;;5.30;99.90;;;;;;5013401;28;20652;-90
2021/12/06 08:25:23;;;;;;;27.07;17.13;;;5.30;99.90;;;;;;4997216;28;20249;-92
2021/12/06 08:27:50;;;;;;;28.55;18.17;;;5.30;99.90;;;;;;5011745;28;20226;-92
2021/12/06 08:30:19;;;;;;;27.30;17.08;;;5.30;99.90;;;;;;5000358;28;20205;-90
2021/12/06 08:32:47;;;;;;;30.52;18.95;;;5.30;99.90;;;;;;5011454;28;20189;-92
2021/12/06 08:35:13;;;;;;;27.10;16.88;;;5.30;99.90;;;;;;5010395;28;20445;-92
2021/12/06 08:37:38;;;;;;;28.40;19.10;;;5.20;99.90;;;;;;5034923;28;20294;-92
2021/12/06 08:40:05;;;;;;;29.47;18.07;;;5.30;99.90;;;;;;5045017;28;20203;-91
2021/12/06 08:42:31;;;;;;;33.03;18.77;;;5.30;99.90;;;;;;5013359;28;20569;-90
2021/12/06 08:44:57;;;;;;;26.03;16.10;;;5.30;99.90;;;;;;5024355;28;20230;-92
2021/12/06 08:47:24;;;;;;;31.30;17.83;;;5.20;99.90;;;;;;5013996;28;20473;-92
2021/12/06 08:49:51;;;;;;;30.55;17.55;;;5.20;99.90;;;;;;5009341;28;20455;-92
2021/12/06 08:52:18;;;;;;;29.35;19.80;;;5.20;99.90;;;;;;5013945;28;20187;-92
2021/12/06 08:54:43;;;;;;;33.75;18.90;;;5.20;99.90;;;;;;5029384;28;20208;-90
2021/12/06 08:57:10;;;;;;;32.67;19.33;;;5.20;99.90;;;;;;5021651;28;20226;-92
2021/12/06 08:59:36;;;;;;;28.50;18.65;;;5.20;99.90;;;;;;5013886;28;20539;-92
2021/12/06 09:02:02;;;;;;;27.88;17.50;;;5.20;99.90;;;;;;5035196;28;20186;-91
2021/12/06 09:04:33;;;;;;;31.25;17.88;;;5.20;99.90;;;;;;5011553;28;20182;-90
2021/12/06 09:07:00;;;;;;;31.42;17.80;;;5.20;99.90;;;;;;5023154;28;20341;-90
2021/12/06 09:09:27;;;;;;;33.05;18.65;;;5.20;99.90;;;;;;5001855;28;20674;-90
2021/12/06 09:11:55;;;;;;;29.13;17.45;;;5.20;99.90;;;;;;4992312;28;20210;-92
2021/12/06 09:14:21;;;;;;;28.70;17.52;;;5.20;99.90;;;;;;4998628;28;20298;-92
2021/12/06 09:16:47;;;;;;;36.33;19.63;;;5.20;99.90;;;;;;5005053;28;20221;-90
2021/12/06 09:19:15;;;;;;;32.60;17.83;;;5.20;99.90;;;;;;5031732;28;20714;-91
2021/12/06 09:21:43;;;;;;;27.77;17.58;;;5.20;99.90;;;;;;5017655;28;20457;-92
2021/12/06 09:24:12;;;;;;;28.25;16.88;;;5.20;99.90;;;;;;5009845;28;20922;-92
2021/12/06 09:26:38;;;;;;;29.17;17.02;;;5.30;99.90;;;;;;5012449;28;20769;-90
2021/12/06 09:29:05;;;;;;;29.13;16.87;;;5.30;99.90;;;;;;5009437;28;20197;-90
2021/12/06 09:31:31;;;;;;;34.67;17.88;;;5.20;99.90;;;;;;5010693;28;20455;-90
2021/12/06 09:33:57;;;;;;;30.05;18.58;;;5.30;99.90;;;;;;5030071;28;20186;-90
2021/12/06 09:36:25;;;;;;;34.40;18.20;;;5.30;99.90;;;;;;5012358;28;20210;-90
2021/12/06 09:38:51;;;;;;;34.78;18.80;;;5.30;99.90;;;;;;5010944;28;20470;-91
2021/12/06 09:41:25;;;;;;;30.80;18.30;;;5.20;99.90;;;;;;5029254;28;20258;-92
2021/12/06 09:43:53;;;;;;;31.30;17.20;;;5.20;99.90;;;;;;5016836;28;20193;-92
2021/12/06 09:46:20;;;;;;;42.15;24.48;;;5.20;99.90;;;;;;5010159;28;20203;-90
2021/12/06 09:48:47;;;;;;;32.30;21.25;;;5.20;99.90;;;;;;5029327;28;20186;-92
2021/12/06 09:51:18;;;;;;;32.50;19.50;;;5.20;99.90;;;;;;5015949;28;20202;-92
2021/12/06 09:53:46;;;;;;;34.17;20.48;;;5.20;99.90;;;;;;5014497;28;20187;-92
2021/12/06 09:56:18;;;;;;;40.67;23.83;;;5.10;99.90;;;;;;5032288;28;20923;-90
2021/12/06 09:58:44;;;;;;;39.45;21.83;;;5.10;99.90;;;;;;5012931;28;20189;-90
2021/12/06 10:01:20;;;;;;;41.70;21.75;;;5.10;99.90;;;;;;5030030;28;20190;-92
2021/12/06 10:03:49;;;;;;;39.75;21.33;;;5.10;99.90;;;;;;5011811;28;20182;-90
2021/12/06 10:06:17;;;;;;;46.92;25.10;;;5.10;99.90;;;;;;5011642;28;20232;-90
2021/12/06 10:08:45;;;;;;;43.22;23.73;;;5.10;99.90;;;;;;5031975;28;20686;-92
2021/12/06 10:11:13;;;;;;;39.90;20.58;;;5.10;99.90;;;;;;5032779;28;20200;-90
2021/12/06 10:13:40;;;;;;;40.28;24.92;;;5.10;99.90;;;;;;5017865;28;20225;-90
2021/12/06 10:16:07;;;;;;;38.60;22.15;;;5.10;99.90;;;;;;5016195;28;20214;-91
2021/12/06 10:18:33;;;;;;;40.78;20.55;;;5.10;99.90;;;;;;5030609;28;20585;-92
2021/12/06 10:21:00;;;;;;;40.90;21.00;;;5.10;99.90;;;;;;5011981;28;20210;-93
2021/12/06 10:23:27;;;;;;;43.92;22.90;;;5.00;99.90;;;;;;5010836;28;21022;-90
2021/12/06 10:25:54;;;;;;;43.80;22.63;;;5.00;99.90;;;;;;5016248;28;20602;-93
2021/12/06 10:28:29;;;;;;;38.55;21.58;;;5.10;99.90;;;;;;5023534;28;20185;-92
2021/12/06 10:31:00;;;;;;;40.53;22.27;;;5.00;99.90;;;;;;5031539;28;20243;-90
2021/12/06 10:33:29;;;;;;;40.50;22.70;;;5.00;99.90;;;;;;5019143;28;20190;-91
2021/12/06 10:36:00;;;;;;;42.05;23.40;;;5.00;99.90;;;;;;5017925;28;20224;-93
2021/12/06 10:38:32;;;;;;;36.67;21.83;;;5.00;99.90;;;;;;5038945;28;20591;-92
2021/12/06 10:41:08;;;;;;;40.47;21.55;;;5.00;99.90;;;;;;5033120;28;20707;-92
2021/12/06 10:43:37;;;;;;;44.05;21.65;;;5.00;99.90;;;;;;5013631;28;20547;-90
2021/12/06 10:46:06;;;;;;;37.22;21.08;;;5.00;99.90;;;;;;5018766;28;20230;-89
2021/12/06 10:48:38;;;;;;;43.50;22.40;;;5.00;99.90;;;;;;5024713;28;20190;-90
2021/12/06 10:51:11;;;;;;;43.58;22.55;;;5.10;99.90;;;;;;5016348;28;20198;-92
2021/12/06 10:53:44;;;;;;;41.67;23.40;;;5.10;99.90;;;;;;5010159;28;20236;-92
2021/12/06 10:56:19;;;;;;;41.00;22.63;;;5.10;99.90;;;;;;5046219;28;20198;-90
2021/12/06 10:58:46;;;;;;;40.53;22.60;;;5.20;99.90;;;;;;5008453;28;20191;-90
2021/12/06 11:01:16;;;;;;;38.10;22.38;;;5.20;99.90;;;;;;5016645;28;20198;-92
2021/12/06 11:03:53;;;;;;;42.78;23.23;;;5.20;99.90;;;;;;5022972;28;20197;-91
2021/12/06 11:06:36;;;;;;;36.95;21.73;;;5.20;99.90;;;;;;5026838;28;20213;-90
2021/12/06 11:09:05;;;;;;;41.28;22.63;;;5.20;99.90;;;;;;5046338;28;20248;-90
2021/12/06 11:11:50;;;;;;;38.72;21.60;;;5.20;99.90;;;;;;5033238;28;20202;-91
2021/12/06 11:14:22;;;;;;;39.03;22.33;;;5.30;99.90;;;;;;5031695;28;20640;-92
2021/12/06 11:16:54;;;;;;;34.55;19.45;;;5.30;99.90;;;;;;5033249;28;20210;-93
2021/12/06 11:19:22;;;;;;;37.97;21.65;;;5.30;99.90;;;;;;5020823;28;20194;-91
2021/12/06 11:21:59;;;;;;;33.28;19.48;;;5.30;99.90;;;;;;5042040;28;20197;-93
2021/12/06 11:24:28;;;;;;;39.50;20.75;;;5.40;99.90;;;;;;5034596;28;20185;-90
2021/12/06 11:27:04;;;;;;;34.30;20.10;;;5.40;99.90;;;;;;5007301;28;20241;-91
2021/12/06 11:29:49;;;;;;;34.25;19.85;;;5.40;99.90;;;;;;5027536;28;20177;-92
2021/12/06 11:32:46;;;;;;;34.47;19.45;;;5.50;99.90;;;;;;5034709;28;20265;-92
2021/12/06 11:35:21;;;;;;;39.40;20.17;;;5.50;99.90;;;;;;5006049;28;20237;-90
2021/12/06 11:37:54;;;;;;;34.45;19.55;;;5.50;99.90;;;;;;5007037;28;20217;-90
2021/12/06 11:40:27;;;;;;;36.67;20.08;;;5.60;99.90;;;;;;5016211;28;20226;-90
2021/12/06 11:43:03;;;;;;;33.15;19.05;;;5.50;99.90;;;;;;5043700;28;20179;-92
2021/12/06 11:45:49;;;;;;;30.13;18.77;;;5.60;99.90;;;;;;5016816;28;20234;-90
2021/12/06 11:48:21;;;;;;;33.20;19.30;;;5.50;99.90;;;;;;5041476;28;20183;-92
2021/12/06 11:50:50;;;;;;;33.88;20.45;;;5.60;99.90;;;;;;5046708;28;20233;-90
2021/12/06 11:53:18;;;;;;;30.85;19.50;;;5.60;99.90;;;;;;5014740;28;20187;-91
2021/12/06 11:55:50;;;;;;;33.88;19.60;;;5.60;99.90;;;;;;5030482;28;20190;-92
2021/12/06 11:58:27;;;;;;;31.63;19.13;;;5.60;99.90;;;;;;5008977;28;20324;-91
2021/12/06 12:01:09;;;;;;;31.48;20.00;;;5.60;99.90;;;;;;5015042;28;20650;-91
2021/12/06 12:03:36;;;;;;;37.33;22.38;;;5.60;99.90;;;;;;5014736;28;20186;-92
2021/12/06 12:06:02;;;;;;;39.42;23.38;;;5.60;99.90;;;;;;5015480;28;20241;-92
2021/12/06 12:08:33;;;;;;;40.35;23.77;;;5.60;99.90;;;;;;5014755;28;20182;-91
2021/12/06 12:10:59;;;;;;;42.75;25.10;;;5.60;99.90;;;;;;5041699;28;20269;-90
2021/12/06 12:13:35;;;;;;;42.75;22.60;;;5.60;99.90;;;;;;5026310;28;20199;-92
2021/12/06 12:16:07;;;;;;;43.20;23.73;;;5.60;99.90;;;;;;5029033;28;20220;-90
2021/12/06 12:18:36;;;;;;;41.55;23.13;;;5.60;99.90;;;;;;5009002;28;20191;-92
2021/12/06 12:21:03;;;;;;;41.30;23.17;;;5.50;99.90;;;;;;5028404;28;20213;-90
2021/12/06 12:23:33;;;;;;;45.38;23.80;;;5.50;99.90;;;;;;5028793;28;20706;-90
2021/12/06 12:26:10;;;;;;;34.03;21.90;;;5.50;99.90;;;;;;5022976;28;20202;-92
2021/12/06 12:28:48;;;;;;;44.55;24.05;;;5.50;99.90;;;;;;5016585;28;20200;-92
2021/12/06 12:31:14;;;;;;;46.80;24.25;;;5.40;99.90;;;;;;5012661;28;20211;-91
2021/12/06 12:33:41;;;;;;;44.13;23.10;;;5.40;99.90;;;;;;5029658;28;20194;-92
2021/12/06 12:36:12;;;;;;;46.97;24.88;;;5.40;99.90;;;;;;5033062;28;20202;-90
2021/12/06 12:38:42;;;;;;;51.08;26.45;;;5.40;99.90;;;;;;5043497;28;20252;-90
2021/12/06 12:41:16;;;;;;;49.22;25.20;;;5.40;99.90;;;;;;5012564;28;20202;-90
2021/12/06 12:43:44;;;;;;;45.35;25.00;;;5.40;99.90;;;;;;5013862;28;20545;-90
2021/12/06 12:46:18;;;;;;;50.25;26.15;;;5.40;99.90;;;;;;5008865;28;20218;-90
2021/12/06 12:48:51;;;;;;;44.95;25.58;;;5.40;99.90;;;;;;5034177;28;20183;-92
2021/12/06 12:51:22;;;;;;;44.17;24.38;;;5.40;99.90;;;;;;5029436;28;20190;-92
2021/12/06 12:54:02;;;;;;;49.03;23.75;;;5.40;99.90;;;;;;5014031;28;20280;-90
2021/12/06 12:56:36;;;;;;;41.38;21.85;;;5.40;99.90;;;;;;5013220;28;20210;-92